createdAt,value
2019-01-17T00:02:36.205Z,3.17
2019-01-17T00:05:25.425Z,3.03
2019-01-17T00:08:08.665Z,3.87
2019-01-17T00:10:59.914Z,3.50
2019-01-17T00:13:45.881Z,3.10
2019-01-17T00:16:50.615Z,3.17
2019-01-17T00:19:39.811Z,4.03
2019-01-17T00:22:46.783Z,3.80
2019-01-17T00:25:34.840Z,3.40
2019-01-17T00:28:23.902Z,4.30
2019-01-17T00:31:10.346Z,3.30
2019-01-17T00:34:20.616Z,3.67
2019-01-17T00:37:02.222Z,3.83
2019-01-17T00:39:39.518Z,3.90
2019-01-17T00:42:34.762Z,4.20
2019-01-17T00:45:17.179Z,4.00
2019-01-17T00:48:18.550Z,3.83
2019-01-17T00:51:06.907Z,4.27
2019-01-17T00:54:09.063Z,3.63
2019-01-17T00:57:04.710Z,4.23
2019-01-17T00:59:52.583Z,4.63
2019-01-17T01:02:32.173Z,4.83
2019-01-17T01:05:10.843Z,4.83
2019-01-17T01:08:04.528Z,4.90
2019-01-17T01:10:50.489Z,5.20
2019-01-17T01:13:38.770Z,5.00
2019-01-17T01:16:32.048Z,4.87
2019-01-17T01:19:14.523Z,4.67
2019-01-17T01:22:02.261Z,4.60
2019-01-17T01:25:03.701Z,5.07
2019-01-17T01:27:51.632Z,5.37
2019-01-17T01:30:32.038Z,5.43
2019-01-17T01:33:35.882Z,5.20
2019-01-17T01:36:22.920Z,5.03
2019-01-17T01:39:17.927Z,5.63
2019-01-17T01:42:12.974Z,5.37
2019-01-17T01:45:16.950Z,6.23
2019-01-17T01:48:17.850Z,5.77
2019-01-17T01:51:12.777Z,5.63
2019-01-17T01:53:43.754Z,5.40
2019-01-17T01:56:13.606Z,5.70
2019-01-17T01:58:43.553Z,5.73
2019-01-17T02:01:13.391Z,5.80
2019-01-17T02:03:44.482Z,5.87
2019-01-17T02:06:14.333Z,6.03
2019-01-17T02:08:46.475Z,5.90
2019-01-17T02:11:16.239Z,5.43
2019-01-17T02:13:48.931Z,5.63
2019-01-17T02:16:18.960Z,6.27
2019-01-17T02:18:49.167Z,5.67
2019-01-17T02:21:19.058Z,5.90
2019-01-17T02:23:51.711Z,6.50
2019-01-17T02:26:22.742Z,6.37
2019-01-17T02:28:52.865Z,5.90
2019-01-17T02:31:25.126Z,6.60
2019-01-17T02:33:55.535Z,6.80
2019-01-17T02:36:25.313Z,6.50
2019-01-17T02:38:55.279Z,6.67
2019-01-17T02:41:25.268Z,6.33
2019-01-17T02:43:55.321Z,6.23
2019-01-17T02:46:25.199Z,5.93
2019-01-17T02:48:55.106Z,5.90
2019-01-17T02:51:25.374Z,5.87
2019-01-17T02:53:55.374Z,5.97
2019-01-17T02:56:25.286Z,6.33
2019-01-17T02:58:57.288Z,5.80
2019-01-17T03:01:27.194Z,5.90
2019-01-17T03:03:57.423Z,6.07
2019-01-17T03:06:27.486Z,5.90
2019-01-17T03:08:57.411Z,5.80
2019-01-17T03:11:27.391Z,5.80
2019-01-17T03:13:57.529Z,6.37
2019-01-17T03:16:27.707Z,5.63
2019-01-17T03:18:57.566Z,5.40
2019-01-17T03:21:27.660Z,5.50
2019-01-17T03:23:58.085Z,5.30
2019-01-17T03:26:27.954Z,5.80
2019-01-17T03:28:58.209Z,5.03
2019-01-17T03:31:28.239Z,5.43
2019-01-17T03:33:58.130Z,4.83
2019-01-17T03:36:37.214Z,5.53
2019-01-17T03:39:07.929Z,5.10
2019-01-17T03:41:37.643Z,5.00
2019-01-17T03:44:07.777Z,5.13
2019-01-17T03:46:38.147Z,4.27
2019-01-17T03:49:08.177Z,4.63
2019-01-17T03:51:37.963Z,4.60
2019-01-17T03:54:07.852Z,4.50
2019-01-17T03:56:38.032Z,4.73
2019-01-17T03:59:08.420Z,4.40
2019-01-17T04:01:38.290Z,4.20
2019-01-17T04:04:08.078Z,3.90
2019-01-17T04:06:38.025Z,3.50
2019-01-17T04:09:08.159Z,3.73
2019-01-17T04:11:38.235Z,3.57
2019-01-17T04:14:08.063Z,3.40
2019-01-17T04:16:37.837Z,3.50
2019-01-17T04:19:07.626Z,3.40
2019-01-17T04:21:37.654Z,3.13
2019-01-17T04:24:07.766Z,3.10
2019-01-17T04:26:37.451Z,3.13
2019-01-17T04:29:07.302Z,3.60
2019-01-17T04:31:37.027Z,3.40
2019-01-17T04:34:06.928Z,3.50
2019-01-17T04:36:36.868Z,3.10
2019-01-17T04:39:07.938Z,3.33
2019-01-17T04:41:37.720Z,3.53
2019-01-17T04:44:07.533Z,3.50
2019-01-17T04:46:37.228Z,4.17
2019-01-17T04:49:07.570Z,4.07
2019-01-17T04:51:37.579Z,4.10
2019-01-17T04:54:07.446Z,4.43
2019-01-17T04:56:37.317Z,4.43
2019-01-17T04:59:07.131Z,4.53
2019-01-17T05:01:36.898Z,5.10
2019-01-17T05:04:06.857Z,4.77
2019-01-17T05:06:36.712Z,5.37
2019-01-17T05:09:08.207Z,5.00
2019-01-17T05:11:37.877Z,5.17
2019-01-17T05:14:07.865Z,5.13
2019-01-17T05:16:37.627Z,5.47
2019-01-17T05:19:07.537Z,5.47
2019-01-17T05:21:37.302Z,5.77
2019-01-17T05:24:07.191Z,5.20
2019-01-17T05:26:36.941Z,5.37
2019-01-17T05:29:07.051Z,5.30
2019-01-17T05:31:36.915Z,5.17
2019-01-17T05:34:06.795Z,5.30
2019-01-17T05:36:36.559Z,5.37
2019-01-17T05:39:07.676Z,5.37
2019-01-17T05:41:37.534Z,5.23
2019-01-17T05:44:07.646Z,5.43
2019-01-17T05:46:37.506Z,5.10
2019-01-17T05:49:07.536Z,5.73
2019-01-17T05:51:37.400Z,5.00
2019-01-17T05:54:07.171Z,5.63
2019-01-17T05:56:37.289Z,5.23
2019-01-17T05:59:07.216Z,5.33
2019-01-17T06:01:36.967Z,5.30
2019-01-17T06:04:07.090Z,6.13
2019-01-17T06:06:37.040Z,5.50
2019-01-17T06:09:09.066Z,4.87
2019-01-17T06:11:38.906Z,4.83
2019-01-17T06:14:08.870Z,4.70
2019-01-17T06:16:38.702Z,4.70
2019-01-17T06:19:08.634Z,4.73
2019-01-17T06:21:38.491Z,4.33
2019-01-17T06:24:08.190Z,4.33
2019-01-17T06:26:38.559Z,5.30
2019-01-17T06:29:08.654Z,5.00
2019-01-17T06:31:38.363Z,4.93
2019-01-17T06:34:08.177Z,5.17
2019-01-17T06:36:38.319Z,5.30
2019-01-17T06:39:09.038Z,4.90
2019-01-17T06:41:39.567Z,10.47
2019-01-17T06:44:09.268Z,5.17
2019-01-17T06:46:39.054Z,5.60
2019-01-17T06:49:09.027Z,5.63
2019-01-17T06:51:39.135Z,5.27
2019-01-17T06:54:08.831Z,5.40
2019-01-17T06:56:38.508Z,5.33
2019-01-17T06:59:08.642Z,5.70
2019-01-17T07:01:38.476Z,5.60
2019-01-17T07:04:08.173Z,6.13
2019-01-17T07:06:37.882Z,5.60
2019-01-17T07:09:08.818Z,5.50
2019-01-17T07:11:39.294Z,5.50
2019-01-17T07:14:09.242Z,5.27
2019-01-17T07:16:39.032Z,4.90
2019-01-17T07:19:09.061Z,5.10
2019-01-17T07:21:39.602Z,5.37
2019-01-17T07:24:09.465Z,5.37
2019-01-17T07:26:39.408Z,5.10
2019-01-17T07:29:09.378Z,5.27
2019-01-17T07:31:39.167Z,5.70
2019-01-17T07:34:09.014Z,5.27
2019-01-17T07:36:38.968Z,4.57
2019-01-17T07:39:08.920Z,3.23
2019-01-17T07:41:38.640Z,3.07
2019-01-17T07:44:08.489Z,2.40
2019-01-17T07:46:38.279Z,3.13
2019-01-17T07:49:08.162Z,3.40
2019-01-17T07:51:38.182Z,3.30
2019-01-17T07:54:08.043Z,3.30
2019-01-17T07:56:38.422Z,3.20
2019-01-17T07:59:08.519Z,3.17
2019-01-17T08:01:38.910Z,3.20
2019-01-17T08:04:08.698Z,3.73
2019-01-17T08:06:38.586Z,4.00
2019-01-17T08:09:20.772Z,4.20
2019-01-17T08:11:52.972Z,5.53
2019-01-17T08:14:22.866Z,4.07
2019-01-17T08:16:53.157Z,4.83
2019-01-17T08:19:23.272Z,5.77
2019-01-17T08:21:53.305Z,3.80
2019-01-17T08:24:23.338Z,3.50
2019-01-17T08:26:53.382Z,6.20
2019-01-17T08:29:23.599Z,4.73
2019-01-17T08:31:53.376Z,4.60
2019-01-17T08:34:28.230Z,3.93
2019-01-17T08:36:55.345Z,4.17
2019-01-17T08:39:25.234Z,4.27
2019-01-17T08:41:55.250Z,4.40
2019-01-17T08:44:25.406Z,4.73
2019-01-17T08:46:55.770Z,4.27
2019-01-17T08:49:25.790Z,4.53
2019-01-17T08:51:55.651Z,4.90
2019-01-17T08:54:25.423Z,5.27
2019-01-17T08:56:55.263Z,4.80
2019-01-17T08:59:25.048Z,4.90
2019-01-17T09:01:54.943Z,4.87
2019-01-17T09:04:24.646Z,5.03
2019-01-17T09:06:54.647Z,5.03
2019-01-17T09:09:24.512Z,5.43
2019-01-17T09:11:54.582Z,5.60
2019-01-17T09:14:24.425Z,5.17
2019-01-17T09:16:54.201Z,5.83
2019-01-17T09:19:24.322Z,5.40
2019-01-17T09:21:54.039Z,5.83
2019-01-17T09:24:23.883Z,6.40
2019-01-17T09:26:53.666Z,6.47
2019-01-17T09:29:23.475Z,6.20
2019-01-17T09:31:53.177Z,6.03
2019-01-17T09:34:23.026Z,6.90
2019-01-17T09:36:52.914Z,6.70
2019-01-17T09:39:23.835Z,6.87
2019-01-17T09:41:54.328Z,7.27
2019-01-17T09:44:24.096Z,6.60
2019-01-17T09:46:53.841Z,8.63
2019-01-17T09:49:23.947Z,7.10
2019-01-17T09:51:53.870Z,7.10
2019-01-17T09:54:23.755Z,7.83
2019-01-17T09:56:54.078Z,7.47
2019-01-17T09:59:23.938Z,7.30
2019-01-17T10:01:53.762Z,7.70
2019-01-17T10:04:26.554Z,7.87
2019-01-17T10:06:55.208Z,4.60
2019-01-17T10:09:24.969Z,5.20
2019-01-17T10:11:54.742Z,4.83
2019-01-17T10:14:24.615Z,3.60
2019-01-17T10:17:06.622Z,3.20
2019-01-17T10:20:11.944Z,2.47
2019-01-17T10:23:22.983Z,3.10
2019-01-17T10:26:03.928Z,2.53
2019-01-17T10:29:13.796Z,2.80
2019-01-17T10:31:57.483Z,2.60
2019-01-17T10:34:59.806Z,3.10
2019-01-17T10:38:21.434Z,3.50
2019-01-17T10:41:37.638Z,2.50
2019-01-17T10:44:12.959Z,3.70
2019-01-17T10:47:17.874Z,3.37
2019-01-17T10:50:19.953Z,3.37
2019-01-17T10:53:10.985Z,3.37
2019-01-17T10:56:15.077Z,2.90
2019-01-17T10:59:22.762Z,2.50
2019-01-17T11:02:35.491Z,2.47
2019-01-17T11:05:33.637Z,1.80
2019-01-17T11:08:29.463Z,1.87
2019-01-17T11:11:34.725Z,2.13
2019-01-17T11:14:40.566Z,1.90
2019-01-17T11:17:53.293Z,1.80
2019-01-17T11:21:18.711Z,1.90
2019-01-17T11:24:19.911Z,1.90
2019-01-17T11:27:27.102Z,1.80
2019-01-17T11:30:37.597Z,2.00
2019-01-17T11:33:45.242Z,1.93
2019-01-17T11:36:39.955Z,1.70
2019-01-17T11:39:44.507Z,1.70
2019-01-17T11:42:50.802Z,1.80
2019-01-17T11:46:07.530Z,2.40
2019-01-17T11:49:10.698Z,3.33
2019-01-17T11:52:10.491Z,2.20
2019-01-17T11:55:07.218Z,1.90
2019-01-17T11:58:27.395Z,1.57
2019-01-17T12:01:20.149Z,1.63
2019-01-17T12:04:27.458Z,2.80
2019-01-17T12:06:57.410Z,3.47
2019-01-17T12:09:27.219Z,2.07
2019-01-17T12:11:57.022Z,3.33
2019-01-17T12:14:26.881Z,3.30
2019-01-17T12:16:56.703Z,3.60
2019-01-17T12:19:26.576Z,2.20
2019-01-17T12:21:56.405Z,1.90
2019-01-17T12:24:26.228Z,3.20
2019-01-17T12:26:55.951Z,3.60
2019-01-17T12:29:25.831Z,2.43
2019-01-17T12:31:55.562Z,2.70
2019-01-17T12:34:25.269Z,3.90
2019-01-17T12:36:55.037Z,2.90
2019-01-17T12:39:24.860Z,2.37
2019-01-17T12:41:56.087Z,2.67
2019-01-17T12:44:25.953Z,2.30
2019-01-17T12:46:56.049Z,2.80
2019-01-17T12:49:25.930Z,4.17
2019-01-17T12:51:56.123Z,1.97
2019-01-17T12:54:25.888Z,4.07
2019-01-17T12:56:55.738Z,3.10
2019-01-17T12:59:25.674Z,3.97
2019-01-17T13:01:55.585Z,2.17
2019-01-17T13:04:26.067Z,2.67
2019-01-17T13:06:55.838Z,3.10
2019-01-17T13:09:25.646Z,2.60
2019-01-17T13:11:55.755Z,2.10
2019-01-17T13:14:26.055Z,8.07
2019-01-17T13:16:55.770Z,1.80
2019-01-17T13:19:25.764Z,1.70
2019-01-17T13:21:55.990Z,2.57
2019-01-17T13:24:26.092Z,4.23
2019-01-17T13:27:00.683Z,2.73
2019-01-17T13:29:27.738Z,2.70
2019-01-17T13:31:57.610Z,3.20
2019-01-17T13:34:27.351Z,2.17
2019-01-17T13:36:57.182Z,2.13
2019-01-17T13:39:27.188Z,4.07
2019-01-17T13:41:57.298Z,2.10
2019-01-17T13:44:27.042Z,2.30
2019-01-17T13:46:57.115Z,3.80
2019-01-17T13:49:26.832Z,2.17
2019-01-17T13:51:56.994Z,2.53
2019-01-17T13:54:27.432Z,2.40
2019-01-17T13:56:57.245Z,1.90
2019-01-17T13:59:27.213Z,2.10
2019-01-17T14:01:57.258Z,1.90
2019-01-17T14:04:27.312Z,1.73
2019-01-17T14:06:57.316Z,2.10
2019-01-17T14:09:27.443Z,2.00
2019-01-17T14:11:57.211Z,1.60
2019-01-17T14:14:26.995Z,1.60
2019-01-17T14:16:56.686Z,1.70
2019-01-17T14:19:26.782Z,1.90
2019-01-17T14:21:57.010Z,1.90
2019-01-17T14:24:26.703Z,2.03
2019-01-17T14:26:56.627Z,1.90
2019-01-17T14:29:26.437Z,2.50
2019-01-17T14:31:56.154Z,2.43
2019-01-17T14:34:25.916Z,2.60
2019-01-17T14:36:55.735Z,2.20
2019-01-17T14:39:25.576Z,2.50
2019-01-17T14:41:55.387Z,2.63
2019-01-17T14:44:25.177Z,2.43
2019-01-17T14:46:54.971Z,2.93
2019-01-17T14:49:24.684Z,3.40
2019-01-17T14:51:54.495Z,4.30
2019-01-17T14:54:24.313Z,3.20
2019-01-17T14:56:54.106Z,3.40
2019-01-17T14:59:23.867Z,3.90
2019-01-17T15:01:53.690Z,3.77
2019-01-17T15:04:23.705Z,5.00
2019-01-17T15:06:53.858Z,3.17
2019-01-17T15:09:23.615Z,3.40
2019-01-17T15:11:53.462Z,3.10
2019-01-17T15:14:23.171Z,2.67
2019-01-17T15:16:52.846Z,2.70
2019-01-17T15:19:22.886Z,4.30
2019-01-17T15:21:52.662Z,3.60
2019-01-17T15:24:22.634Z,2.60
2019-01-17T15:26:52.674Z,2.20
2019-01-17T15:29:23.038Z,2.00
2019-01-17T15:31:53.054Z,2.27
2019-01-17T15:34:23.098Z,1.97
2019-01-17T15:36:53.141Z,2.37
2019-01-17T15:39:23.006Z,2.40
2019-01-17T15:41:52.831Z,2.27
2019-01-17T15:44:22.803Z,1.90
2019-01-17T15:46:52.899Z,2.00
2019-01-17T15:49:23.110Z,1.77
2019-01-17T15:51:53.116Z,2.23
2019-01-17T15:54:22.914Z,2.07
2019-01-17T15:56:52.603Z,2.57
2019-01-17T15:59:23.289Z,2.73
2019-01-17T16:01:53.225Z,2.47
2019-01-17T16:04:23.003Z,2.20
2019-01-17T16:06:53.033Z,3.23
2019-01-17T16:09:22.762Z,2.97
2019-01-17T16:11:52.525Z,2.27
2019-01-17T16:14:22.254Z,4.43
2019-01-17T16:16:51.957Z,2.07
2019-01-17T16:19:21.686Z,1.87
2019-01-17T16:21:51.522Z,2.10
2019-01-17T16:24:21.515Z,2.07
2019-01-17T16:26:51.538Z,2.80
2019-01-17T16:29:21.244Z,2.50
2019-01-17T16:31:51.203Z,2.20
2019-01-17T16:34:21.159Z,2.70
2019-01-17T16:36:51.191Z,2.87
2019-01-17T16:39:21.249Z,2.00
2019-01-17T16:41:51.423Z,2.27
2019-01-17T16:44:21.307Z,5.67
2019-01-17T16:46:51.179Z,2.87
2019-01-17T16:49:21.498Z,5.07
2019-01-17T16:51:51.254Z,2.70
2019-01-17T16:54:21.315Z,2.93
2019-01-17T16:56:51.055Z,1.90
2019-01-17T16:59:20.847Z,1.93
2019-01-17T17:01:50.721Z,2.00
2019-01-17T17:04:20.482Z,3.70
2019-01-17T17:06:50.270Z,4.23
2019-01-17T17:09:20.214Z,3.00
2019-01-17T17:11:50.608Z,3.67
2019-01-17T17:14:20.457Z,4.47
2019-01-17T17:16:50.218Z,3.47
2019-01-17T17:19:20.149Z,3.10
2019-01-17T17:21:49.906Z,5.67
2019-01-17T17:24:19.930Z,3.30
2019-01-17T17:26:50.149Z,6.30
2019-01-17T17:29:19.837Z,4.57
2019-01-17T17:31:49.559Z,3.10
2019-01-17T17:34:19.318Z,4.00
2019-01-17T17:36:49.359Z,3.80
2019-01-17T17:39:19.070Z,1.70
2019-01-17T17:41:48.947Z,2.73
2019-01-17T17:44:19.390Z,2.40
2019-01-17T17:46:50.213Z,2.80
2019-01-17T17:49:19.981Z,2.33
2019-01-17T17:51:50.190Z,2.13
2019-01-17T17:54:20.323Z,5.30
2019-01-17T17:56:50.622Z,2.50
2019-01-17T17:59:20.413Z,6.73
2019-01-17T18:01:57.035Z,3.40
2019-01-17T18:04:27.082Z,13.43
2019-01-17T18:06:56.946Z,4.20
2019-01-17T18:09:26.730Z,11.83
2019-01-17T18:11:56.539Z,5.43
2019-01-17T18:14:26.343Z,17.80
2019-01-17T18:16:56.658Z,4.63
2019-01-17T18:19:26.477Z,6.47
2019-01-17T18:21:56.925Z,16.80
2019-01-17T18:24:26.642Z,6.53
2019-01-17T18:26:56.422Z,2.90
2019-01-17T18:29:26.646Z,2.20
2019-01-17T18:31:56.591Z,2.93
2019-01-17T18:34:26.347Z,1.90
2019-01-17T18:36:56.589Z,2.00
2019-01-17T18:39:26.612Z,2.50
2019-01-17T18:41:56.750Z,1.60
2019-01-17T18:44:26.732Z,1.90
2019-01-17T18:46:57.374Z,1.40
2019-01-17T18:49:28.802Z,1.50
2019-01-17T18:51:59.103Z,1.67
2019-01-17T18:54:29.132Z,1.70
2019-01-17T18:56:59.153Z,1.67
2019-01-17T18:59:29.538Z,2.07
2019-01-17T19:01:59.385Z,2.57
2019-01-17T19:04:29.432Z,1.80
2019-01-17T19:06:59.497Z,1.60
2019-01-17T19:09:29.857Z,3.40
2019-01-17T19:11:59.626Z,1.97
2019-01-17T19:14:29.422Z,1.90
2019-01-17T19:16:59.446Z,2.77
2019-01-17T19:19:29.386Z,3.20
2019-01-17T19:21:59.331Z,3.30
2019-01-17T19:24:29.114Z,3.33
2019-01-17T19:26:59.074Z,3.30
2019-01-17T19:29:28.909Z,2.33
2019-01-17T19:31:59.215Z,4.47
2019-01-17T19:34:29.507Z,2.30
2019-01-17T19:36:59.189Z,3.47
2019-01-17T19:39:28.971Z,3.10
2019-01-17T19:41:58.822Z,2.57
2019-01-17T19:44:28.612Z,2.13
2019-01-17T19:46:58.538Z,1.90
2019-01-17T19:49:28.602Z,3.63
2019-01-17T19:51:58.435Z,4.03
2019-01-17T19:54:28.218Z,3.70
2019-01-17T19:56:58.365Z,3.10
2019-01-17T19:59:28.409Z,1.67
2019-01-17T20:01:58.464Z,3.73
2019-01-17T20:04:28.262Z,4.47
2019-01-17T20:06:58.125Z,4.50
2019-01-17T20:09:27.983Z,7.60
2019-01-17T20:11:57.680Z,7.33
2019-01-17T20:14:27.614Z,8.17
2019-01-17T20:16:57.818Z,5.57
2019-01-17T20:19:27.595Z,6.50
2019-01-17T20:21:57.518Z,4.73
2019-01-17T20:24:27.634Z,4.50
2019-01-17T20:26:57.377Z,5.53
2019-01-17T20:29:27.858Z,2.80
2019-01-17T20:31:58.027Z,7.37
2019-01-17T20:34:28.686Z,4.20
2019-01-17T20:36:58.548Z,7.23
2019-01-17T20:39:28.795Z,5.63
2019-01-17T20:41:58.909Z,3.40
2019-01-17T20:44:28.931Z,2.90
2019-01-17T20:46:58.739Z,4.20
2019-01-17T20:49:28.549Z,2.60
2019-01-17T20:51:58.506Z,4.30
2019-01-17T20:54:28.630Z,3.00
2019-01-17T20:56:59.072Z,3.30
2019-01-17T20:59:29.009Z,3.63
2019-01-17T21:02:24.237Z,3.70
2019-01-17T21:04:54.700Z,4.20
2019-01-17T21:07:24.920Z,3.53
2019-01-17T21:09:55.290Z,7.30
2019-01-17T21:12:25.280Z,4.70
2019-01-17T21:14:55.482Z,6.97
2019-01-17T21:17:26.475Z,10.07
2019-01-17T21:19:56.246Z,5.13
2019-01-17T21:22:26.493Z,3.97
2019-01-17T21:24:56.713Z,4.40
2019-01-17T21:27:26.654Z,5.27
2019-01-17T21:29:56.938Z,2.93
2019-01-17T21:32:27.120Z,3.73
2019-01-17T21:34:57.143Z,3.40
2019-01-17T21:37:27.520Z,3.23
2019-01-17T21:39:57.918Z,3.00
2019-01-17T21:42:28.660Z,3.33
2019-01-17T21:45:00.181Z,3.57
2019-01-17T21:47:30.718Z,4.50
2019-01-17T21:50:00.503Z,3.33
2019-01-17T21:52:30.359Z,2.80
2019-01-17T21:55:00.295Z,3.17
2019-01-17T21:57:30.058Z,4.90
2019-01-17T22:00:00.196Z,3.77
2019-01-17T22:02:30.218Z,2.70
2019-01-17T22:05:01.187Z,2.30
2019-01-17T22:07:31.206Z,2.53
2019-01-17T22:10:01.765Z,5.60
2019-01-17T22:12:31.811Z,2.27
2019-01-17T22:15:01.784Z,2.37
2019-01-17T22:17:31.798Z,2.77
2019-01-17T22:20:01.800Z,2.30
2019-01-17T22:22:31.620Z,2.97
2019-01-17T22:25:02.747Z,2.70
2019-01-17T22:27:32.854Z,2.57
2019-01-17T22:30:02.987Z,1.80
2019-01-17T22:32:32.945Z,2.50
2019-01-17T22:35:02.711Z,2.53
2019-01-17T22:37:32.566Z,2.10
2019-01-17T22:40:02.301Z,4.07
2019-01-17T22:42:32.122Z,6.20
2019-01-17T22:45:02.065Z,4.23
2019-01-17T22:47:32.002Z,3.50
2019-01-17T22:50:01.989Z,2.97
2019-01-17T22:52:31.830Z,3.23
2019-01-17T22:55:01.970Z,2.20
2019-01-17T22:57:32.135Z,2.30
2019-01-17T23:00:02.115Z,2.37
2019-01-17T23:02:32.210Z,2.63
2019-01-17T23:05:02.255Z,2.10
2019-01-17T23:07:32.019Z,1.80
2019-01-17T23:10:02.090Z,1.80
2019-01-17T23:12:32.666Z,2.00
2019-01-17T23:15:02.926Z,1.90
2019-01-17T23:17:32.671Z,2.37
2019-01-17T23:20:02.753Z,2.33
2019-01-17T23:22:32.867Z,2.00
2019-01-17T23:25:02.797Z,2.40
2019-01-17T23:27:32.814Z,2.03
2019-01-17T23:30:03.334Z,2.20
2019-01-17T23:32:33.459Z,2.40
2019-01-17T23:35:03.961Z,2.40
2019-01-17T23:37:33.759Z,2.47
2019-01-17T23:40:05.001Z,2.87
2019-01-17T23:42:35.125Z,3.00
2019-01-17T23:45:05.739Z,3.10
2019-01-17T23:47:35.826Z,2.60
2019-01-17T23:50:06.325Z,3.40
2019-01-17T23:52:37.153Z,3.33
2019-01-17T23:55:07.042Z,3.10
2019-01-17T23:57:37.697Z,3.00
